sensor_id;sensor_type;location;lat;lon;timestamp;P1;durP1;ratioP1;P2;durP2;ratioP2
1128;SDS011;553;51.038;7.216;2022-10-22T00:02:26;19.03;;;10.90;;
1128;SDS011;553;51.038;7.216;2022-10-22T00:04:53;14.37;;;12.10;;
1128;SDS011;553;51.038;7.216;2022-10-22T00:07:22;11.30;;;10.03;;
1128;SDS011;553;51.038;7.216;2022-10-22T00:09:49;17.70;;;10.20;;
1128;SDS011;553;51.038;7.216;2022-10-22T00:12:15;15.80;;;10.60;;
1128;SDS011;553;51.038;7.216;2022-10-22T00:14:42;16.43;;;11.20;;
1128;SDS011;553;51.038;7.216;2022-10-22T00:17:09;18.97;;;11.50;;
1128;SDS011;553;51.038;7.216;2022-10-22T00:19:37;17.57;;;11.60;;
1128;SDS011;553;51.038;7.216;2022-10-22T00:22:04;19.20;;;12.20;;
1128;SDS011;553;51.038;7.216;2022-10-22T00:24:32;16.80;;;11.80;;
1128;SDS011;553;51.038;7.216;2022-10-22T00:26:59;14.80;;;10.67;;
1128;SDS011;553;51.038;7.216;2022-10-22T00:29:26;15.73;;;10.87;;
1128;SDS011;553;51.038;7.216;2022-10-22T00:31:53;19.60;;;11.20;;
1128;SDS011;553;51.038;7.216;2022-10-22T00:34:21;16.33;;;10.50;;
1128;SDS011;553;51.038;7.216;2022-10-22T00:36:48;18.00;;;11.23;;
1128;SDS011;553;51.038;7.216;2022-10-22T00:39:17;16.70;;;11.50;;
1128;SDS011;553;51.038;7.216;2022-10-22T00:41:46;13.70;;;10.53;;
1128;SDS011;553;51.038;7.216;2022-10-22T00:47:18;18.57;;;11.80;;
1128;SDS011;553;51.038;7.216;2022-10-22T00:49:47;15.90;;;11.17;;
1128;SDS011;553;51.038;7.216;2022-10-22T00:52:15;21.00;;;12.70;;
1128;SDS011;553;51.038;7.216;2022-10-22T00:54:41;16.30;;;12.50;;
1128;SDS011;553;51.038;7.216;2022-10-22T00:57:08;17.00;;;11.90;;
1128;SDS011;553;51.038;7.216;2022-10-22T00:59:35;16.63;;;13.07;;
1128;SDS011;553;51.038;7.216;2022-10-22T01:02:03;16.93;;;11.50;;
1128;SDS011;553;51.038;7.216;2022-10-22T01:04:29;17.13;;;12.60;;
1128;SDS011;553;51.038;7.216;2022-10-22T01:06:56;17.30;;;11.40;;
1128;SDS011;553;51.038;7.216;2022-10-22T01:14:44;15.40;;;11.07;;
1128;SDS011;553;51.038;7.216;2022-10-22T01:31:12;14.33;;;10.73;;
1128;SDS011;553;51.038;7.216;2022-10-22T01:33:42;24.03;;;11.70;;
1128;SDS011;553;51.038;7.216;2022-10-22T01:36:11;14.40;;;10.97;;
1128;SDS011;553;51.038;7.216;2022-10-22T01:38:39;21.23;;;11.93;;
1128;SDS011;553;51.038;7.216;2022-10-22T01:41:07;18.30;;;10.87;;
1128;SDS011;553;51.038;7.216;2022-10-22T01:43:36;15.07;;;10.27;;
1128;SDS011;553;51.038;7.216;2022-10-22T01:46:03;19.93;;;13.00;;
1128;SDS011;553;51.038;7.216;2022-10-22T01:51:33;20.80;;;11.70;;
1128;SDS011;553;51.038;7.216;2022-10-22T01:54:20;15.20;;;10.60;;
1128;SDS011;553;51.038;7.216;2022-10-22T01:57:16;17.33;;;11.47;;
1128;SDS011;553;51.038;7.216;2022-10-22T02:00:03;20.50;;;13.13;;
1128;SDS011;553;51.038;7.216;2022-10-22T02:02:39;18.13;;;11.67;;
1128;SDS011;553;51.038;7.216;2022-10-22T02:08:19;15.70;;;11.90;;
1128;SDS011;553;51.038;7.216;2022-10-22T02:10:53;15.97;;;12.17;;
1128;SDS011;553;51.038;7.216;2022-10-22T02:13:22;17.37;;;12.20;;
1128;SDS011;553;51.038;7.216;2022-10-22T02:15:52;20.90;;;14.20;;
1128;SDS011;553;51.038;7.216;2022-10-22T02:18:21;20.93;;;13.90;;
1128;SDS011;553;51.038;7.216;2022-10-22T02:20:51;17.90;;;11.60;;
1128;SDS011;553;51.038;7.216;2022-10-22T02:23:20;14.00;;;11.53;;
1128;SDS011;553;51.038;7.216;2022-10-22T02:25:48;22.03;;;12.33;;
1128;SDS011;553;51.038;7.216;2022-10-22T02:31:13;18.17;;;12.33;;
1128;SDS011;553;51.038;7.216;2022-10-22T02:33:47;19.60;;;12.00;;
1128;SDS011;553;51.038;7.216;2022-10-22T02:36:18;18.97;;;12.13;;
1128;SDS011;553;51.038;7.216;2022-10-22T02:38:46;18.60;;;12.40;;
1128;SDS011;553;51.038;7.216;2022-10-22T02:41:16;16.30;;;11.60;;
1128;SDS011;553;51.038;7.216;2022-10-22T02:43:48;17.20;;;11.90;;
1128;SDS011;553;51.038;7.216;2022-10-22T02:46:18;20.87;;;11.77;;
1128;SDS011;553;51.038;7.216;2022-10-22T02:48:45;17.60;;;12.03;;
1128;SDS011;553;51.038;7.216;2022-10-22T02:51:11;20.60;;;13.47;;
1128;SDS011;553;51.038;7.216;2022-10-22T02:53:38;19.23;;;13.53;;
1128;SDS011;553;51.038;7.216;2022-10-22T02:56:05;19.13;;;13.30;;
1128;SDS011;553;51.038;7.216;2022-10-22T02:58:32;16.97;;;12.17;;
1128;SDS011;553;51.038;7.216;2022-10-22T03:00:59;19.57;;;12.87;;
1128;SDS011;553;51.038;7.216;2022-10-22T03:03:25;22.77;;;13.70;;
1128;SDS011;553;51.038;7.216;2022-10-22T03:05:52;20.23;;;11.70;;
1128;SDS011;553;51.038;7.216;2022-10-22T03:08:19;22.77;;;14.47;;
1128;SDS011;553;51.038;7.216;2022-10-22T03:10:45;15.93;;;11.93;;
1128;SDS011;553;51.038;7.216;2022-10-22T03:13:12;18.10;;;10.60;;
1128;SDS011;553;51.038;7.216;2022-10-22T03:15:39;14.40;;;10.37;;
1128;SDS011;553;51.038;7.216;2022-10-22T03:18:05;20.97;;;10.43;;
1128;SDS011;553;51.038;7.216;2022-10-22T03:20:32;21.17;;;10.60;;
1128;SDS011;553;51.038;7.216;2022-10-22T03:22:59;13.43;;;11.10;;
1128;SDS011;553;51.038;7.216;2022-10-22T03:25:27;25.70;;;12.80;;
1128;SDS011;553;51.038;7.216;2022-10-22T03:27:56;21.20;;;13.47;;
1128;SDS011;553;51.038;7.216;2022-10-22T03:30:27;17.97;;;12.70;;
1128;SDS011;553;51.038;7.216;2022-10-22T03:32:54;19.03;;;12.43;;
1128;SDS011;553;51.038;7.216;2022-10-22T03:35:20;17.33;;;13.20;;
1128;SDS011;553;51.038;7.216;2022-10-22T03:37:47;16.80;;;12.17;;
1128;SDS011;553;51.038;7.216;2022-10-22T03:40:14;20.00;;;12.60;;
1128;SDS011;553;51.038;7.216;2022-10-22T03:42:41;19.53;;;14.27;;
1128;SDS011;553;51.038;7.216;2022-10-22T03:45:09;21.93;;;15.03;;
1128;SDS011;553;51.038;7.216;2022-10-22T03:47:35;16.73;;;11.73;;
1128;SDS011;553;51.038;7.216;2022-10-22T03:50:03;18.37;;;11.30;;
1128;SDS011;553;51.038;7.216;2022-10-22T03:52:34;16.20;;;10.33;;
1128;SDS011;553;51.038;7.216;2022-10-22T03:55:03;27.53;;;12.40;;
1128;SDS011;553;51.038;7.216;2022-10-22T03:57:30;21.63;;;14.20;;
1128;SDS011;553;51.038;7.216;2022-10-22T03:59:57;12.03;;;10.70;;
1128;SDS011;553;51.038;7.216;2022-10-22T04:02:24;19.97;;;14.00;;
1128;SDS011;553;51.038;7.216;2022-10-22T04:04:50;23.23;;;14.90;;
1128;SDS011;553;51.038;7.216;2022-10-22T04:07:17;24.07;;;15.67;;
1128;SDS011;553;51.038;7.216;2022-10-22T04:09:44;19.70;;;14.80;;
1128;SDS011;553;51.038;7.216;2022-10-22T04:12:10;26.33;;;14.60;;
1128;SDS011;553;51.038;7.216;2022-10-22T04:14:37;19.93;;;14.70;;
1128;SDS011;553;51.038;7.216;2022-10-22T04:17:03;28.53;;;17.07;;
1128;SDS011;553;51.038;7.216;2022-10-22T04:19:30;31.20;;;16.20;;
1128;SDS011;553;51.038;7.216;2022-10-22T04:21:57;26.53;;;16.73;;
1128;SDS011;553;51.038;7.216;2022-10-22T04:24:25;26.53;;;17.97;;
1128;SDS011;553;51.038;7.216;2022-10-22T04:26:54;27.80;;;17.10;;
1128;SDS011;553;51.038;7.216;2022-10-22T04:29:21;25.63;;;16.60;;
1128;SDS011;553;51.038;7.216;2022-10-22T04:31:48;32.40;;;16.97;;
1128;SDS011;553;51.038;7.216;2022-10-22T04:34:15;33.00;;;18.73;;
1128;SDS011;553;51.038;7.216;2022-10-22T04:36:42;29.63;;;18.07;;
1128;SDS011;553;51.038;7.216;2022-10-22T04:39:09;30.30;;;19.20;;
1128;SDS011;553;51.038;7.216;2022-10-22T04:41:37;29.17;;;17.60;;
1128;SDS011;553;51.038;7.216;2022-10-22T04:44:04;25.13;;;17.00;;
1128;SDS011;553;51.038;7.216;2022-10-22T04:46:32;24.77;;;17.97;;
1128;SDS011;553;51.038;7.216;2022-10-22T04:49:00;28.27;;;16.80;;
1128;SDS011;553;51.038;7.216;2022-10-22T04:51:29;27.47;;;17.80;;
1128;SDS011;553;51.038;7.216;2022-10-22T04:53:56;29.27;;;18.57;;
1128;SDS011;553;51.038;7.216;2022-10-22T04:56:24;29.13;;;18.67;;
1128;SDS011;553;51.038;7.216;2022-10-22T04:58:57;29.87;;;18.77;;
1128;SDS011;553;51.038;7.216;2022-10-22T05:01:26;31.97;;;16.90;;
1128;SDS011;553;51.038;7.216;2022-10-22T05:03:58;28.90;;;17.93;;
1128;SDS011;553;51.038;7.216;2022-10-22T05:06:27;42.93;;;20.60;;
1128;SDS011;553;51.038;7.216;2022-10-22T05:08:56;33.77;;;18.00;;
1128;SDS011;553;51.038;7.216;2022-10-22T05:11:29;25.73;;;17.77;;
1128;SDS011;553;51.038;7.216;2022-10-22T05:13:59;30.37;;;18.80;;
1128;SDS011;553;51.038;7.216;2022-10-22T05:16:28;28.93;;;18.60;;
1128;SDS011;553;51.038;7.216;2022-10-22T05:18:56;31.67;;;18.87;;
1128;SDS011;553;51.038;7.216;2022-10-22T05:21:24;23.80;;;17.27;;
1128;SDS011;553;51.038;7.216;2022-10-22T05:23:52;33.17;;;19.60;;
1128;SDS011;553;51.038;7.216;2022-10-22T05:26:20;29.90;;;18.00;;
1128;SDS011;553;51.038;7.216;2022-10-22T05:28:48;36.20;;;19.40;;
1128;SDS011;553;51.038;7.216;2022-10-22T05:31:16;29.17;;;20.00;;
1128;SDS011;553;51.038;7.216;2022-10-22T05:33:44;29.77;;;18.73;;
1128;SDS011;553;51.038;7.216;2022-10-22T05:36:12;29.47;;;18.00;;
1128;SDS011;553;51.038;7.216;2022-10-22T05:38:44;31.57;;;17.63;;
1128;SDS011;553;51.038;7.216;2022-10-22T05:41:21;34.90;;;18.17;;
1128;SDS011;553;51.038;7.216;2022-10-22T05:43:49;34.33;;;18.60;;
1128;SDS011;553;51.038;7.216;2022-10-22T05:46:17;32.10;;;18.50;;
1128;SDS011;553;51.038;7.216;2022-10-22T05:48:54;27.70;;;18.00;;
1128;SDS011;553;51.038;7.216;2022-10-22T05:51:25;33.03;;;17.07;;
1128;SDS011;553;51.038;7.216;2022-10-22T05:53:57;33.23;;;18.87;;
1128;SDS011;553;51.038;7.216;2022-10-22T05:56:25;31.13;;;18.30;;
1128;SDS011;553;51.038;7.216;2022-10-22T05:58:53;29.97;;;18.40;;
1128;SDS011;553;51.038;7.216;2022-10-22T06:01:28;34.17;;;18.60;;
1128;SDS011;553;51.038;7.216;2022-10-22T06:04:00;33.60;;;19.00;;
1128;SDS011;553;51.038;7.216;2022-10-22T06:06:35;34.90;;;18.80;;
1128;SDS011;553;51.038;7.216;2022-10-22T06:09:05;30.73;;;17.70;;
1128;SDS011;553;51.038;7.216;2022-10-22T06:11:36;36.40;;;18.73;;
1128;SDS011;553;51.038;7.216;2022-10-22T06:14:03;26.73;;;16.80;;
1128;SDS011;553;51.038;7.216;2022-10-22T06:16:30;33.70;;;19.00;;
1128;SDS011;553;51.038;7.216;2022-10-22T06:18:58;27.37;;;16.30;;
1128;SDS011;553;51.038;7.216;2022-10-22T06:21:28;31.53;;;18.40;;
1128;SDS011;553;51.038;7.216;2022-10-22T06:23:56;35.30;;;17.83;;
1128;SDS011;553;51.038;7.216;2022-10-22T06:26:24;32.67;;;17.70;;
1128;SDS011;553;51.038;7.216;2022-10-22T06:28:51;29.30;;;17.87;;
1128;SDS011;553;51.038;7.216;2022-10-22T06:31:18;35.43;;;17.83;;
1128;SDS011;553;51.038;7.216;2022-10-22T06:33:44;27.07;;;17.13;;
1128;SDS011;553;51.038;7.216;2022-10-22T06:36:12;26.53;;;17.27;;
1128;SDS011;553;51.038;7.216;2022-10-22T06:38:43;26.00;;;16.90;;
1128;SDS011;553;51.038;7.216;2022-10-22T06:41:11;28.70;;;17.80;;
1128;SDS011;553;51.038;7.216;2022-10-22T06:43:43;29.23;;;16.90;;
1128;SDS011;553;51.038;7.216;2022-10-22T06:46:12;30.50;;;16.83;;
1128;SDS011;553;51.038;7.216;2022-10-22T06:48:55;26.47;;;15.67;;
1128;SDS011;553;51.038;7.216;2022-10-22T06:51:23;24.80;;;15.87;;
1128;SDS011;553;51.038;7.216;2022-10-22T06:53:51;27.10;;;17.00;;
1128;SDS011;553;51.038;7.216;2022-10-22T06:56:19;25.93;;;16.70;;
1128;SDS011;553;51.038;7.216;2022-10-22T06:58:48;29.10;;;16.50;;
1128;SDS011;553;51.038;7.216;2022-10-22T07:01:16;22.37;;;15.10;;
1128;SDS011;553;51.038;7.216;2022-10-22T07:03:44;27.57;;;15.63;;
1128;SDS011;553;51.038;7.216;2022-10-22T07:06:12;24.33;;;15.37;;
1128;SDS011;553;51.038;7.216;2022-10-22T07:08:40;25.83;;;17.00;;
1128;SDS011;553;51.038;7.216;2022-10-22T07:11:12;33.80;;;16.83;;
1128;SDS011;553;51.038;7.216;2022-10-22T07:13:40;26.57;;;16.53;;
1128;SDS011;553;51.038;7.216;2022-10-22T07:16:07;23.87;;;14.37;;
1128;SDS011;553;51.038;7.216;2022-10-22T07:18:35;22.30;;;15.17;;
1128;SDS011;553;51.038;7.216;2022-10-22T07:21:03;25.43;;;15.47;;
1128;SDS011;553;51.038;7.216;2022-10-22T07:23:31;22.07;;;14.40;;
1128;SDS011;553;51.038;7.216;2022-10-22T07:25:58;22.53;;;14.23;;
1128;SDS011;553;51.038;7.216;2022-10-22T07:28:27;26.90;;;14.60;;
1128;SDS011;553;51.038;7.216;2022-10-22T07:30:55;17.70;;;12.90;;
1128;SDS011;553;51.038;7.216;2022-10-22T07:33:21;20.57;;;12.50;;
1128;SDS011;553;51.038;7.216;2022-10-22T07:35:48;17.73;;;12.90;;
1128;SDS011;553;51.038;7.216;2022-10-22T07:38:15;19.20;;;12.90;;
1128;SDS011;553;51.038;7.216;2022-10-22T07:40:41;17.80;;;12.30;;
1128;SDS011;553;51.038;7.216;2022-10-22T07:43:08;17.37;;;11.80;;
1128;SDS011;553;51.038;7.216;2022-10-22T07:45:35;15.03;;;10.13;;
1128;SDS011;553;51.038;7.216;2022-10-22T07:48:01;17.53;;;10.97;;
1128;SDS011;553;51.038;7.216;2022-10-22T07:50:28;19.30;;;9.90;;
1128;SDS011;553;51.038;7.216;2022-10-22T07:52:55;12.50;;;9.40;;
1128;SDS011;553;51.038;7.216;2022-10-22T07:55:23;13.77;;;9.03;;
1128;SDS011;553;51.038;7.216;2022-10-22T07:57:50;17.83;;;9.20;;
1128;SDS011;553;51.038;7.216;2022-10-22T08:00:17;14.37;;;7.43;;
1128;SDS011;553;51.038;7.216;2022-10-22T08:02:50;11.30;;;7.90;;
1128;SDS011;553;51.038;7.216;2022-10-22T08:05:17;10.60;;;5.60;;
1128;SDS011;553;51.038;7.216;2022-10-22T08:07:43;6.27;;;5.10;;
1128;SDS011;553;51.038;7.216;2022-10-22T08:10:10;9.63;;;4.80;;
1128;SDS011;553;51.038;7.216;2022-10-22T08:12:38;7.10;;;4.43;;
1128;SDS011;553;51.038;7.216;2022-10-22T08:15:06;9.30;;;4.30;;
1128;SDS011;553;51.038;7.216;2022-10-22T08:17:33;6.17;;;3.90;;
1128;SDS011;553;51.038;7.216;2022-10-22T08:20:00;7.60;;;4.40;;
1128;SDS011;553;51.038;7.216;2022-10-22T08:22:27;7.30;;;3.57;;
1128;SDS011;553;51.038;7.216;2022-10-22T08:24:53;9.10;;;3.07;;
1128;SDS011;553;51.038;7.216;2022-10-22T08:27:20;7.60;;;2.73;;
1128;SDS011;553;51.038;7.216;2022-10-22T08:29:47;8.57;;;2.90;;
1128;SDS011;553;51.038;7.216;2022-10-22T08:32:13;3.27;;;2.60;;
1128;SDS011;553;51.038;7.216;2022-10-22T08:34:40;9.83;;;2.80;;
1128;SDS011;553;51.038;7.216;2022-10-22T08:37:07;8.70;;;2.97;;
1128;SDS011;553;51.038;7.216;2022-10-22T08:39:35;5.60;;;3.20;;
1128;SDS011;553;51.038;7.216;2022-10-22T08:42:08;9.07;;;3.10;;
1128;SDS011;553;51.038;7.216;2022-10-22T08:45:10;6.80;;;2.53;;
1128;SDS011;553;51.038;7.216;2022-10-22T08:50:45;8.40;;;2.97;;
1128;SDS011;553;51.038;7.216;2022-10-22T08:53:16;9.03;;;3.20;;
1128;SDS011;553;51.038;7.216;2022-10-22T08:55:46;7.77;;;3.30;;
1128;SDS011;553;51.038;7.216;2022-10-22T09:00:51;4.30;;;3.30;;
1128;SDS011;553;51.038;7.216;2022-10-22T09:03:27;9.20;;;3.10;;
1128;SDS011;553;51.038;7.216;2022-10-22T09:06:13;6.20;;;3.37;;
1128;SDS011;553;51.038;7.216;2022-10-22T09:08:44;13.50;;;3.43;;
1128;SDS011;553;51.038;7.216;2022-10-22T09:13:42;7.60;;;2.53;;
1128;SDS011;553;51.038;7.216;2022-10-22T09:16:16;5.07;;;3.00;;
1128;SDS011;553;51.038;7.216;2022-10-22T09:18:55;7.83;;;3.23;;
1128;SDS011;553;51.038;7.216;2022-10-22T09:21:46;5.93;;;2.60;;
1128;SDS011;553;51.038;7.216;2022-10-22T09:24:37;16.03;;;3.63;;
1128;SDS011;553;51.038;7.216;2022-10-22T09:27:12;6.50;;;2.37;;
1128;SDS011;553;51.038;7.216;2022-10-22T09:29:48;9.23;;;3.83;;
1128;SDS011;553;51.038;7.216;2022-10-22T09:32:15;6.33;;;3.33;;
1128;SDS011;553;51.038;7.216;2022-10-22T09:34:46;4.97;;;2.53;;
1128;SDS011;553;51.038;7.216;2022-10-22T09:37:18;7.10;;;2.60;;
1128;SDS011;553;51.038;7.216;2022-10-22T09:39:50;7.03;;;2.50;;
1128;SDS011;553;51.038;7.216;2022-10-22T09:42:18;8.33;;;2.60;;
1128;SDS011;553;51.038;7.216;2022-10-22T09:44:56;5.37;;;2.33;;
1128;SDS011;553;51.038;7.216;2022-10-22T09:52:59;5.37;;;2.20;;
1128;SDS011;553;51.038;7.216;2022-10-22T09:55:31;6.47;;;2.93;;
1128;SDS011;553;51.038;7.216;2022-10-22T09:57:59;8.23;;;2.63;;
1128;SDS011;553;51.038;7.216;2022-10-22T10:00:26;7.80;;;2.27;;
1128;SDS011;553;51.038;7.216;2022-10-22T10:02:54;5.33;;;2.53;;
1128;SDS011;553;51.038;7.216;2022-10-22T10:05:24;11.80;;;3.40;;
1128;SDS011;553;51.038;7.216;2022-10-22T10:07:56;3.27;;;2.50;;
1128;SDS011;553;51.038;7.216;2022-10-22T10:10:26;5.57;;;2.60;;
1128;SDS011;553;51.038;7.216;2022-10-22T10:13:16;5.70;;;2.70;;
1128;SDS011;553;51.038;7.216;2022-10-22T10:16:08;7.20;;;2.60;;
1128;SDS011;553;51.038;7.216;2022-10-22T10:26:38;10.93;;;2.17;;
1128;SDS011;553;51.038;7.216;2022-10-22T10:29:17;7.07;;;2.20;;
1128;SDS011;553;51.038;7.216;2022-10-22T10:32:09;3.97;;;2.07;;
1128;SDS011;553;51.038;7.216;2022-10-22T10:35:07;5.83;;;2.50;;
1128;SDS011;553;51.038;7.216;2022-10-22T10:37:55;4.10;;;2.17;;
1128;SDS011;553;51.038;7.216;2022-10-22T10:40:55;7.10;;;1.90;;
1128;SDS011;553;51.038;7.216;2022-10-22T10:46:32;5.30;;;2.43;;
1128;SDS011;553;51.038;7.216;2022-10-22T10:49:22;5.67;;;2.10;;
1128;SDS011;553;51.038;7.216;2022-10-22T11:08:17;6.70;;;3.50;;
1128;SDS011;553;51.038;7.216;2022-10-22T11:11:01;13.20;;;3.77;;
1128;SDS011;553;51.038;7.216;2022-10-22T11:16:16;10.17;;;2.33;;
1128;SDS011;553;51.038;7.216;2022-10-22T11:18:53;7.60;;;3.00;;
1128;SDS011;553;51.038;7.216;2022-10-22T11:21:37;6.80;;;2.73;;
1128;SDS011;553;51.038;7.216;2022-10-22T11:26:49;9.87;;;1.80;;
1128;SDS011;553;51.038;7.216;2022-10-22T11:29:22;7.50;;;2.17;;
1128;SDS011;553;51.038;7.216;2022-10-22T11:31:58;9.00;;;2.97;;
1128;SDS011;553;51.038;7.216;2022-10-22T11:34:40;6.13;;;2.10;;
1128;SDS011;553;51.038;7.216;2022-10-22T11:37:12;5.33;;;1.30;;
1128;SDS011;553;51.038;7.216;2022-10-22T11:39:41;4.97;;;1.67;;
1128;SDS011;553;51.038;7.216;2022-10-22T11:42:32;9.13;;;1.80;;
1128;SDS011;553;51.038;7.216;2022-10-22T11:58:28;4.33;;;1.67;;
1128;SDS011;553;51.038;7.216;2022-10-22T12:08:41;3.97;;;1.50;;
1128;SDS011;553;51.038;7.216;2022-10-22T12:16:27;4.23;;;1.43;;
1128;SDS011;553;51.038;7.216;2022-10-22T12:21:48;1.63;;;1.10;;
1128;SDS011;553;51.038;7.216;2022-10-22T12:24:23;5.57;;;1.60;;
1128;SDS011;553;51.038;7.216;2022-10-22T12:26:54;8.53;;;2.93;;
1128;SDS011;553;51.038;7.216;2022-10-22T12:29:21;7.83;;;3.60;;
1128;SDS011;553;51.038;7.216;2022-10-22T12:31:49;3.50;;;1.20;;
1128;SDS011;553;51.038;7.216;2022-10-22T12:34:22;6.87;;;3.30;;
1128;SDS011;553;51.038;7.216;2022-10-22T12:36:51;7.23;;;1.80;;
1128;SDS011;553;51.038;7.216;2022-10-22T12:39:20;2.27;;;1.13;;
1128;SDS011;553;51.038;7.216;2022-10-22T12:41:51;9.20;;;2.47;;
1128;SDS011;553;51.038;7.216;2022-10-22T12:44:19;3.30;;;1.67;;
1128;SDS011;553;51.038;7.216;2022-10-22T12:46:46;2.60;;;0.87;;
1128;SDS011;553;51.038;7.216;2022-10-22T12:49:20;4.63;;;1.60;;
1128;SDS011;553;51.038;7.216;2022-10-22T12:51:48;3.97;;;1.23;;
1128;SDS011;553;51.038;7.216;2022-10-22T12:54:25;10.27;;;4.43;;
1128;SDS011;553;51.038;7.216;2022-10-22T12:56:56;4.27;;;1.73;;
1128;SDS011;553;51.038;7.216;2022-10-22T12:59:24;3.30;;;1.10;;
1128;SDS011;553;51.038;7.216;2022-10-22T13:01:54;4.07;;;1.50;;
1128;SDS011;553;51.038;7.216;2022-10-22T13:07:02;2.57;;;1.80;;
1128;SDS011;553;51.038;7.216;2022-10-22T13:09:45;4.83;;;1.23;;
1128;SDS011;553;51.038;7.216;2022-10-22T13:12:24;5.13;;;1.07;;
1128;SDS011;553;51.038;7.216;2022-10-22T13:15:17;3.00;;;1.00;;
1128;SDS011;553;51.038;7.216;2022-10-22T13:20:30;2.90;;;0.77;;
1128;SDS011;553;51.038;7.216;2022-10-22T13:22:58;3.40;;;0.90;;
1128;SDS011;553;51.038;7.216;2022-10-22T13:25:33;2.40;;;1.10;;
1128;SDS011;553;51.038;7.216;2022-10-22T13:30:36;2.93;;;1.03;;
1128;SDS011;553;51.038;7.216;2022-10-22T13:33:04;2.17;;;1.00;;
1128;SDS011;553;51.038;7.216;2022-10-22T13:35:44;3.13;;;0.90;;
1128;SDS011;553;51.038;7.216;2022-10-22T13:38:13;5.37;;;0.70;;
1128;SDS011;553;51.038;7.216;2022-10-22T13:40:43;4.93;;;0.97;;
1128;SDS011;553;51.038;7.216;2022-10-22T13:43:10;2.33;;;0.90;;
1128;SDS011;553;51.038;7.216;2022-10-22T13:45:36;5.60;;;1.17;;
1128;SDS011;553;51.038;7.216;2022-10-22T13:48:03;3.27;;;1.10;;
1128;SDS011;553;51.038;7.216;2022-10-22T13:50:30;2.90;;;1.03;;
1128;SDS011;553;51.038;7.216;2022-10-22T13:52:57;3.70;;;1.17;;
1128;SDS011;553;51.038;7.216;2022-10-22T13:55:25;6.20;;;1.93;;
1128;SDS011;553;51.038;7.216;2022-10-22T13:58:08;8.13;;;1.37;;
1128;SDS011;553;51.038;7.216;2022-10-22T14:00:39;3.73;;;1.30;;
1128;SDS011;553;51.038;7.216;2022-10-22T14:03:09;4.23;;;1.00;;
1128;SDS011;553;51.038;7.216;2022-10-22T14:05:38;5.57;;;1.00;;
1128;SDS011;553;51.038;7.216;2022-10-22T14:08:15;4.50;;;1.70;;
1128;SDS011;553;51.038;7.216;2022-10-22T14:10:43;3.93;;;1.00;;
1128;SDS011;553;51.038;7.216;2022-10-22T14:13:11;2.40;;;1.10;;
1128;SDS011;553;51.038;7.216;2022-10-22T14:15:39;2.77;;;0.90;;
1128;SDS011;553;51.038;7.216;2022-10-22T14:18:07;3.20;;;1.13;;
1128;SDS011;553;51.038;7.216;2022-10-22T14:20:38;4.17;;;0.90;;
1128;SDS011;553;51.038;7.216;2022-10-22T14:25:45;3.90;;;0.87;;
1128;SDS011;553;51.038;7.216;2022-10-22T14:28:12;3.97;;;1.43;;
1128;SDS011;553;51.038;7.216;2022-10-22T14:30:39;3.73;;;1.30;;
1128;SDS011;553;51.038;7.216;2022-10-22T14:33:13;2.03;;;0.80;;
1128;SDS011;553;51.038;7.216;2022-10-22T14:35:46;3.50;;;1.23;;
1128;SDS011;553;51.038;7.216;2022-10-22T14:38:13;4.23;;;0.90;;
1128;SDS011;553;51.038;7.216;2022-10-22T14:40:41;5.63;;;1.83;;
1128;SDS011;553;51.038;7.216;2022-10-22T14:43:29;3.10;;;0.90;;
1128;SDS011;553;51.038;7.216;2022-10-22T14:45:56;5.33;;;1.40;;
1128;SDS011;553;51.038;7.216;2022-10-22T14:48:23;5.30;;;1.30;;
1128;SDS011;553;51.038;7.216;2022-10-22T14:50:50;6.27;;;2.10;;
1128;SDS011;553;51.038;7.216;2022-10-22T14:53:17;2.43;;;1.00;;
1128;SDS011;553;51.038;7.216;2022-10-22T14:55:43;3.30;;;1.23;;
1128;SDS011;553;51.038;7.216;2022-10-22T14:58:12;3.43;;;1.30;;
1128;SDS011;553;51.038;7.216;2022-10-22T15:00:39;4.50;;;1.80;;
1128;SDS011;553;51.038;7.216;2022-10-22T15:03:07;3.20;;;1.30;;
1128;SDS011;553;51.038;7.216;2022-10-22T15:05:34;5.90;;;1.50;;
1128;SDS011;553;51.038;7.216;2022-10-22T15:08:07;3.90;;;1.23;;
1128;SDS011;553;51.038;7.216;2022-10-22T15:10:33;3.63;;;1.37;;
1128;SDS011;553;51.038;7.216;2022-10-22T15:13:00;7.33;;;1.13;;
1128;SDS011;553;51.038;7.216;2022-10-22T15:15:27;3.93;;;1.00;;
1128;SDS011;553;51.038;7.216;2022-10-22T15:18:00;3.30;;;0.83;;
1128;SDS011;553;51.038;7.216;2022-10-22T15:20:27;2.93;;;0.90;;
1128;SDS011;553;51.038;7.216;2022-10-22T15:22:54;7.37;;;1.30;;
1128;SDS011;553;51.038;7.216;2022-10-22T15:25:21;2.73;;;0.80;;
1128;SDS011;553;51.038;7.216;2022-10-22T15:27:48;3.63;;;0.90;;
1128;SDS011;553;51.038;7.216;2022-10-22T15:30:18;6.23;;;1.43;;
1128;SDS011;553;51.038;7.216;2022-10-22T15:32:45;4.23;;;1.50;;
1128;SDS011;553;51.038;7.216;2022-10-22T15:35:12;8.47;;;3.60;;
1128;SDS011;553;51.038;7.216;2022-10-22T15:37:39;5.37;;;1.03;;
1128;SDS011;553;51.038;7.216;2022-10-22T15:40:05;4.10;;;1.10;;
1128;SDS011;553;51.038;7.216;2022-10-22T15:42:33;4.27;;;1.20;;
1128;SDS011;553;51.038;7.216;2022-10-22T15:45:00;6.07;;;2.43;;
1128;SDS011;553;51.038;7.216;2022-10-22T15:47:27;4.07;;;1.20;;
1128;SDS011;553;51.038;7.216;2022-10-22T15:49:56;2.30;;;1.20;;
1128;SDS011;553;51.038;7.216;2022-10-22T15:52:23;10.40;;;1.40;;
1128;SDS011;553;51.038;7.216;2022-10-22T15:54:49;11.93;;;1.37;;
1128;SDS011;553;51.038;7.216;2022-10-22T15:57:16;5.30;;;1.57;;
1128;SDS011;553;51.038;7.216;2022-10-22T15:59:43;8.97;;;1.90;;
1128;SDS011;553;51.038;7.216;2022-10-22T16:02:10;4.03;;;1.63;;
1128;SDS011;553;51.038;7.216;2022-10-22T16:04:37;5.33;;;1.70;;
1128;SDS011;553;51.038;7.216;2022-10-22T16:07:04;3.20;;;1.20;;
1128;SDS011;553;51.038;7.216;2022-10-22T16:09:31;6.00;;;1.40;;
1128;SDS011;553;51.038;7.216;2022-10-22T16:11:58;4.10;;;1.93;;
1128;SDS011;553;51.038;7.216;2022-10-22T16:14:24;7.80;;;3.87;;
1128;SDS011;553;51.038;7.216;2022-10-22T16:16:53;5.83;;;2.00;;
1128;SDS011;553;51.038;7.216;2022-10-22T16:19:22;4.70;;;2.23;;
1128;SDS011;553;51.038;7.216;2022-10-22T16:21:49;4.90;;;1.20;;
1128;SDS011;553;51.038;7.216;2022-10-22T16:24:18;6.23;;;1.40;;
1128;SDS011;553;51.038;7.216;2022-10-22T16:26:46;3.90;;;2.03;;
1128;SDS011;553;51.038;7.216;2022-10-22T16:29:13;6.10;;;2.57;;
1128;SDS011;553;51.038;7.216;2022-10-22T16:31:40;10.60;;;1.77;;
1128;SDS011;553;51.038;7.216;2022-10-22T16:34:08;3.67;;;1.90;;
1128;SDS011;553;51.038;7.216;2022-10-22T16:36:35;4.17;;;1.70;;
1128;SDS011;553;51.038;7.216;2022-10-22T16:39:03;4.50;;;1.90;;
1128;SDS011;553;51.038;7.216;2022-10-22T16:41:30;6.00;;;2.50;;
1128;SDS011;553;51.038;7.216;2022-10-22T16:44:03;8.23;;;2.30;;
1128;SDS011;553;51.038;7.216;2022-10-22T16:46:31;4.70;;;2.77;;
1128;SDS011;553;51.038;7.216;2022-10-22T16:48:59;6.87;;;2.30;;
1128;SDS011;553;51.038;7.216;2022-10-22T16:51:26;7.93;;;1.87;;
1128;SDS011;553;51.038;7.216;2022-10-22T16:53:54;12.07;;;2.43;;
1128;SDS011;553;51.038;7.216;2022-10-22T16:56:22;8.97;;;2.50;;
1128;SDS011;553;51.038;7.216;2022-10-22T16:58:51;5.97;;;2.50;;
1128;SDS011;553;51.038;7.216;2022-10-22T17:01:21;10.67;;;4.20;;
1128;SDS011;553;51.038;7.216;2022-10-22T17:03:51;7.27;;;4.70;;
1128;SDS011;553;51.038;7.216;2022-10-22T17:06:20;6.40;;;3.10;;
1128;SDS011;553;51.038;7.216;2022-10-22T17:08:48;8.00;;;3.47;;
1128;SDS011;553;51.038;7.216;2022-10-22T17:11:16;6.07;;;2.67;;
1128;SDS011;553;51.038;7.216;2022-10-22T17:13:45;5.13;;;2.60;;
1128;SDS011;553;51.038;7.216;2022-10-22T17:16:18;5.53;;;2.43;;
1128;SDS011;553;51.038;7.216;2022-10-22T17:18:46;5.50;;;1.80;;
1128;SDS011;553;51.038;7.216;2022-10-22T17:21:13;4.77;;;2.30;;
1128;SDS011;553;51.038;7.216;2022-10-22T17:23:41;8.60;;;2.87;;
1128;SDS011;553;51.038;7.216;2022-10-22T17:26:12;12.60;;;4.90;;
1128;SDS011;553;51.038;7.216;2022-10-22T17:28:45;5.80;;;2.20;;
1128;SDS011;553;51.038;7.216;2022-10-22T17:31:46;5.97;;;2.90;;